Time;durP1;ratioP1;P1;durP2;ratioP2;P2;SDS_P1;SDS_P2;PMS_P1;PMS_P2;Temp;Humidity;BMP_temperature;BMP_pressure;BME280_temperature;BME280_humidity;BME280_pressure;Samples;Min_cycle;Max_cycle;Signal;HPM_P1;HPM_P2
2023/04/29 00:01:03;;;;;;;;;1.00;1.00;;;;;;;;5035630;28;45329;-86
2023/04/29 00:03:31;;;;;;;;;2.00;1.00;;;;;;;;5035299;28;45361;-86
2023/04/29 00:05:56;;;;;;;;;1.75;1.00;;;;;;;;5018014;28;45374;-86
2023/04/29 00:08:21;;;;;;;;;1.67;1.00;;;;;;;;5009226;28;45513;-86
2023/04/29 00:10:47;;;;;;;;;3.00;1.00;;;;;;;;4997692;28;46076;-86
2023/04/29 00:13:12;;;;;;;;;2.00;1.00;;;;;;;;5015347;28;45513;-86
2023/04/29 00:15:37;;;;;;;;;1.25;1.25;;;;;;;;5015726;28;45288;-86
2023/04/29 00:18:03;;;;;;;;;2.00;1.00;;;;;;;;4997715;28;45378;-85
2023/04/29 00:20:28;;;;;;;;;2.75;1.00;;;;;;;;5015643;28;45306;-86
2023/04/29 00:22:53;;;;;;;;;0.00;0.00;;;;;;;;4997990;28;45355;-87
2023/04/29 00:25:19;;;;;;;;;2.00;2.00;;;;;;;;5001239;28;45269;-86
2023/04/29 00:27:44;;;;;;;;;1.75;1.00;;;;;;;;5001338;28;45408;-85
2023/04/29 00:30:10;;;;;;;;;4.50;2.00;;;;;;;;5001247;28;47409;-86
2023/04/29 00:32:35;;;;;;;;;2.00;1.50;;;;;;;;5018550;28;45178;-85
2023/04/29 00:35:01;;;;;;;;;1.00;1.00;;;;;;;;5019275;28;45269;-86
2023/04/29 00:37:26;;;;;;;;;3.00;1.00;;;;;;;;5018779;28;45267;-85
2023/04/29 00:39:51;;;;;;;;;3.00;1.33;;;;;;;;5019231;28;46470;-85
2023/04/29 00:42:17;;;;;;;;;3.00;2.00;;;;;;;;5001080;28;45286;-86
2023/04/29 00:44:42;;;;;;;;;4.25;1.25;;;;;;;;5018793;28;45299;-85
2023/04/29 00:47:10;;;;;;;;;2.00;2.00;;;;;;;;5018437;28;45338;-85
2023/04/29 00:49:36;;;;;;;;;3.75;1.00;;;;;;;;5000850;28;47357;-85
2023/04/29 00:52:01;;;;;;;;;2.00;2.00;;;;;;;;5018554;28;45873;-86
2023/04/29 00:54:26;;;;;;;;;4.00;2.00;;;;;;;;5001052;28;45412;-86
2023/04/29 00:56:53;;;;;;;;;3.33;2.00;;;;;;;;5017165;28;45440;-86
2023/04/29 00:59:19;;;;;;;;;2.00;1.00;;;;;;;;5018485;28;45419;-86
2023/04/29 01:01:45;;;;;;;;;8.00;2.50;;;;;;;;5000214;28;45417;-85
2023/04/29 01:04:10;;;;;;;;;4.00;2.25;;;;;;;;5000609;28;45239;-86
2023/04/29 01:06:39;;;;;;;;;1.25;1.25;;;;;;;;5018465;28;45272;-85
2023/04/29 01:09:25;;;;;;;;;1.00;1.00;;;;;;;;5017793;28;45497;-85
2023/04/29 01:12:09;;;;;;;;;2.00;2.00;;;;;;;;5018073;28;45913;-85
2023/04/29 01:14:37;;;;;;;;;1.75;1.75;;;;;;;;5018669;28;45203;-87
2023/04/29 01:17:08;;;;;;;;;3.25;2.75;;;;;;;;5018321;28;45250;-84
2023/04/29 01:19:42;;;;;;;;;2.25;0.75;;;;;;;;5018135;28;47206;-85
2023/04/29 01:22:08;;;;;;;;;2.75;1.00;;;;;;;;5000347;28;45795;-85
2023/04/29 01:24:33;;;;;;;;;3.00;1.00;;;;;;;;5018247;28;45364;-84
2023/04/29 01:27:04;;;;;;;;;2.00;2.00;;;;;;;;5018197;28;45448;-85
2023/04/29 01:29:34;;;;;;;;;1.00;1.00;;;;;;;;5017612;28;45615;-85
2023/04/29 01:32:04;;;;;;;;;3.25;3.00;;;;;;;;5018104;28;45358;-85
2023/04/29 01:34:43;;;;;;;;;2.00;1.00;;;;;;;;5017859;28;45519;-85
2023/04/29 01:37:08;;;;;;;;;2.25;2.25;;;;;;;;5017698;28;45472;-85
2023/04/29 01:39:44;;;;;;;;;3.00;2.00;;;;;;;;5017749;28;46000;-85
2023/04/29 01:42:14;;;;;;;;;2.75;1.00;;;;;;;;5017776;28;45663;-86
2023/04/29 01:44:40;;;;;;;;;1.25;1.25;;;;;;;;5017630;28;45341;-85
2023/04/29 01:47:05;;;;;;;;;2.75;2.00;;;;;;;;5017955;28;45259;-85
2023/04/29 01:49:34;;;;;;;;;5.25;2.25;;;;;;;;5017580;28;45857;-86
2023/04/29 01:51:59;;;;;;;;;2.75;2.75;;;;;;;;5017569;28;45667;-85
2023/04/29 01:54:24;;;;;;;;;1.00;1.00;;;;;;;;5017819;28;45300;-85
2023/04/29 01:56:50;;;;;;;;;3.33;2.00;;;;;;;;5017923;28;45635;-85
2023/04/29 01:59:16;;;;;;;;;2.00;2.00;;;;;;;;5017115;28;47369;-86
2023/04/29 02:01:41;;;;;;;;;2.00;2.00;;;;;;;;4999661;28;45642;-85
2023/04/29 02:04:06;;;;;;;;;3.75;2.00;;;;;;;;5017605;28;45334;-85
2023/04/29 02:06:32;;;;;;;;;3.33;2.00;;;;;;;;4999771;28;45576;-85
2023/04/29 02:08:57;;;;;;;;;2.00;2.00;;;;;;;;5030475;28;45565;-85
2023/04/29 02:11:22;;;;;;;;;2.00;2.00;;;;;;;;5019219;28;45443;-86
2023/04/29 02:13:48;;;;;;;;;3.67;3.00;;;;;;;;5019029;28;45354;-85
2023/04/29 02:16:14;;;;;;;;;2.33;2.00;;;;;;;;5019376;28;45418;-85
2023/04/29 02:18:47;;;;;;;;;5.50;2.25;;;;;;;;5036967;28;46656;-86
2023/04/29 02:21:12;;;;;;;;;2.00;1.00;;;;;;;;5037057;28;45430;-85
2023/04/29 02:23:37;;;;;;;;;4.67;2.00;;;;;;;;5037170;28;45343;-85
2023/04/29 02:26:05;;;;;;;;;4.00;3.00;;;;;;;;5037212;28;45421;-85
2023/04/29 02:28:30;;;;;;;;;2.00;2.00;;;;;;;;5036530;28;46450;-86
2023/04/29 02:30:55;;;;;;;;;4.00;3.00;;;;;;;;5036867;28;45246;-85
2023/04/29 02:33:20;;;;;;;;;4.00;3.00;;;;;;;;5037025;28;45250;-84
2023/04/29 02:35:46;;;;;;;;;3.00;2.00;;;;;;;;5037144;28;45280;-85
2023/04/29 02:38:11;;;;;;;;;2.33;2.00;;;;;;;;5036768;28;46611;-84
2023/04/29 02:40:40;;;;;;;;;2.25;2.00;;;;;;;;5037017;28;45453;-86
2023/04/29 02:43:14;;;;;;;;;3.00;3.00;;;;;;;;5037230;28;45306;-89
2023/04/29 02:48:54;;;;;;;;;4.25;2.00;;;;;;;;5040096;28;45229;-89
2023/04/29 02:51:19;;;;;;;;;7.50;2.50;;;;;;;;5019568;28;45891;-88
2023/04/29 02:53:44;;;;;;;;;4.00;3.00;;;;;;;;5019096;28;45309;-85
2023/04/29 02:56:10;;;;;;;;;5.00;2.33;;;;;;;;5036953;28;45217;-84
2023/04/29 02:58:35;;;;;;;;;2.25;2.00;;;;;;;;5036360;28;46416;-85
2023/04/29 03:01:01;;;;;;;;;7.00;4.00;;;;;;;;5037115;28;45408;-85
2023/04/29 03:03:26;;;;;;;;;3.00;2.00;;;;;;;;5036535;28;45374;-85
2023/04/29 03:05:52;;;;;;;;;6.25;3.00;;;;;;;;5018745;28;45533;-85
2023/04/29 03:08:17;;;;;;;;;2.50;2.00;;;;;;;;5036271;28;45489;-87
2023/04/29 03:10:43;;;;;;;;;2.75;1.00;;;;;;;;5036506;28;45286;-85
2023/04/29 03:13:08;;;;;;;;;2.00;1.50;;;;;;;;5035944;28;45439;-86
2023/04/29 03:15:33;;;;;;;;;3.67;2.00;;;;;;;;5036484;28;45354;-86
2023/04/29 03:18:00;;;;;;;;;4.00;2.25;;;;;;;;5036259;28;45413;-85
2023/04/29 03:20:26;;;;;;;;;3.75;2.00;;;;;;;;5036275;28;45638;-86
2023/04/29 03:22:51;;;;;;;;;5.00;2.75;;;;;;;;5036129;28;45232;-85
2023/04/29 03:25:17;;;;;;;;;4.25;1.50;;;;;;;;5036483;28;45317;-86
2023/04/29 03:27:42;;;;;;;;;3.75;2.00;;;;;;;;5035766;28;47270;-85
2023/04/29 03:30:08;;;;;;;;;4.67;2.00;;;;;;;;5036274;28;45297;-85
2023/04/29 03:32:33;;;;;;;;;1.00;1.00;;;;;;;;5035800;28;45216;-85
2023/04/29 03:34:58;;;;;;;;;3.33;2.00;;;;;;;;5036207;28;45341;-85
2023/04/29 03:37:23;;;;;;;;;4.00;2.00;;;;;;;;5035980;28;45432;-85
2023/04/29 03:39:48;;;;;;;;;4.67;2.33;;;;;;;;5034897;28;46128;-85
2023/04/29 03:42:14;;;;;;;;;4.00;2.75;;;;;;;;5035558;28;45452;-85
2023/04/29 03:44:39;;;;;;;;;2.00;2.00;;;;;;;;5036062;28;45271;-85
2023/04/29 03:47:05;;;;;;;;;2.67;2.00;;;;;;;;5035927;28;45387;-85
2023/04/29 03:49:30;;;;;;;;;4.00;2.00;;;;;;;;5035928;28;45833;-85
2023/04/29 03:51:55;;;;;;;;;3.75;3.75;;;;;;;;5035740;28;45400;-85
2023/04/29 03:54:21;;;;;;;;;2.33;2.33;;;;;;;;5036074;28;45319;-85
2023/04/29 03:56:46;;;;;;;;;4.00;2.00;;;;;;;;5035500;28;45510;-86
2023/04/29 03:59:12;;;;;;;;;4.33;2.00;;;;;;;;5037528;28;45333;-86
2023/04/29 04:01:37;;;;;;;;;4.75;3.00;;;;;;;;5038161;28;45349;-85
2023/04/29 04:04:02;;;;;;;;;5.00;2.67;;;;;;;;5037956;28;45579;-84
2023/04/29 04:06:27;;;;;;;;;5.00;4.00;;;;;;;;5037716;28;46145;-84
2023/04/29 04:08:52;;;;;;;;;4.33;3.00;;;;;;;;5037102;28;45486;-84
2023/04/29 04:11:18;;;;;;;;;5.00;3.00;;;;;;;;5037777;28;45328;-85
2023/04/29 04:13:43;;;;;;;;;8.00;3.33;;;;;;;;5021049;28;45395;-85
2023/04/29 04:16:09;;;;;;;;;3.00;3.00;;;;;;;;5021002;28;47885;-85
2023/04/29 04:18:35;;;;;;;;;3.25;3.25;;;;;;;;5039046;28;45345;-86
2023/04/29 04:21:04;;;;;;;;;3.75;2.00;;;;;;;;5021144;28;45278;-85
2023/04/29 04:23:29;;;;;;;;;4.00;2.75;;;;;;;;5038959;28;45266;-86
2023/04/29 04:25:54;;;;;;;;;3.00;3.00;;;;;;;;5020835;28;46349;-85
2023/04/29 04:28:19;;;;;;;;;3.33;2.67;;;;;;;;5038819;28;45462;-85
2023/04/29 04:30:45;;;;;;;;;3.00;3.00;;;;;;;;5039121;28;45309;-85
2023/04/29 04:33:10;;;;;;;;;7.00;4.25;;;;;;;;5038935;28;45397;-87
2023/04/29 04:35:37;;;;;;;;;8.00;4.00;;;;;;;;5040349;28;46368;-90
2023/04/29 04:38:03;;;;;;;;;8.00;4.00;;;;;;;;5039602;28;45325;-88
2023/04/29 04:40:28;;;;;;;;;2.50;2.50;;;;;;;;5039592;28;45336;-87
2023/04/29 04:42:53;;;;;;;;;8.00;4.00;;;;;;;;5038772;28;45657;-86
2023/04/29 04:45:26;;;;;;;;;2.67;2.67;;;;;;;;5039186;28;46197;-88
2023/04/29 04:47:51;;;;;;;;;6.50;2.25;;;;;;;;5038451;28;45349;-85
2023/04/29 04:50:16;;;;;;;;;4.00;3.00;;;;;;;;5020862;28;45332;-85
2023/04/29 04:52:41;;;;;;;;;3.00;3.00;;;;;;;;5038353;28;45577;-85
2023/04/29 04:55:07;;;;;;;;;2.75;2.75;;;;;;;;5020831;28;47814;-86
2023/04/29 04:57:32;;;;;;;;;4.25;3.25;;;;;;;;5039147;28;45477;-88
2023/04/29 04:59:57;;;;;;;;;6.67;3.00;;;;;;;;5021849;28;45438;-88
2023/04/29 05:02:23;;;;;;;;;4.67;3.00;;;;;;;;5039674;28;45476;-89
2023/04/29 05:04:48;;;;;;;;;7.00;4.33;;;;;;;;5021083;28;48042;-86
2023/04/29 05:07:13;;;;;;;;;7.67;3.00;;;;;;;;5020176;28;45417;-85
2023/04/29 05:09:38;;;;;;;;;7.67;3.33;;;;;;;;5019953;28;45357;-86
2023/04/29 05:12:03;;;;;;;;;5.00;4.00;;;;;;;;5024507;28;45326;-85
2023/04/29 05:14:29;;;;;;;;;4.00;2.33;;;;;;;;5038055;28;46379;-85
2023/04/29 05:16:57;;;;;;;;;6.67;2.67;;;;;;;;5037886;28;45397;-85
2023/04/29 05:19:22;;;;;;;;;8.75;4.50;;;;;;;;5038491;28;45452;-85
2023/04/29 05:21:48;;;;;;;;;7.00;3.00;;;;;;;;5037875;28;45421;-85
2023/04/29 05:24:14;;;;;;;;;7.00;3.00;;;;;;;;5037628;28;46971;-84
2023/04/29 05:26:39;;;;;;;;;4.00;1.25;;;;;;;;5038050;28;45438;-85
2023/04/29 05:29:04;;;;;;;;;5.67;4.33;;;;;;;;5038389;28;45273;-86
2023/04/29 05:31:30;;;;;;;;;4.67;3.00;;;;;;;;5038292;28;45241;-86
2023/04/29 05:33:55;;;;;;;;;4.00;1.75;;;;;;;;5038456;28;47248;-94
2023/04/29 05:36:20;;;;;;;;;3.25;2.00;;;;;;;;5040819;28;45450;-93
2023/04/29 05:38:46;;;;;;;;;6.00;3.00;;;;;;;;5053986;28;45380;-91
2023/04/29 05:41:12;;;;;;;;;4.67;3.33;;;;;;;;5052241;28;45508;-95
2023/04/29 05:43:38;;;;;;;;;4.25;2.50;;;;;;;;5043778;28;46082;-95
2023/04/29 05:46:03;;;;;;;;;3.00;2.67;;;;;;;;5024009;28;45392;-93
2023/04/29 05:48:28;;;;;;;;;3.67;3.33;;;;;;;;5023070;28;45323;-93
2023/04/29 05:50:54;;;;;;;;;3.00;3.00;;;;;;;;5039533;28;45329;-96
2023/04/29 05:53:19;;;;;;;;;4.00;4.00;;;;;;;;5040325;28;46582;-95
2023/04/29 05:55:45;;;;;;;;;4.50;2.00;;;;;;;;5021479;28;45315;-92
2023/04/29 05:58:11;;;;;;;;;4.25;4.00;;;;;;;;5030872;28;45491;-93
2023/04/29 06:00:36;;;;;;;;;7.25;3.75;;;;;;;;5021617;28;45525;-96
2023/04/29 06:03:01;;;;;;;;;4.00;4.00;;;;;;;;5020906;28;47177;-90
2023/04/29 06:05:26;;;;;;;;;5.00;3.67;;;;;;;;5019137;28;45276;-86
2023/04/29 06:07:52;;;;;;;;;3.00;2.00;;;;;;;;5015745;28;45346;-85
2023/04/29 06:10:18;;;;;;;;;3.50;3.00;;;;;;;;5018244;28;45532;-93
2023/04/29 06:12:43;;;;;;;;;6.00;3.00;;;;;;;;5031401;28;45614;-91
2023/04/29 06:15:08;;;;;;;;;5.00;5.00;;;;;;;;5038999;28;45310;-91
2023/04/29 06:17:33;;;;;;;;;3.25;3.25;;;;;;;;5038741;28;45207;-92
2023/04/29 06:19:59;;;;;;;;;1.33;1.33;;;;;;;;5020962;28;45480;-91
2023/04/29 06:22:24;;;;;;;;;2.75;2.75;;;;;;;;5020462;28;47204;-91
2023/04/29 06:24:50;;;;;;;;;3.33;1.67;;;;;;;;5021166;28;45590;-91
2023/04/29 06:27:15;;;;;;;;;3.75;2.00;;;;;;;;5038882;28;45581;-92
2023/04/29 06:29:41;;;;;;;;;6.25;2.00;;;;;;;;5026526;28;45544;-91
2023/04/29 06:32:06;;;;;;;;;2.25;2.25;;;;;;;;5019028;28;45248;-92
2023/04/29 06:34:31;;;;;;;;;4.25;3.00;;;;;;;;5018261;28;45486;-91
2023/04/29 06:36:57;;;;;;;;;4.00;3.50;;;;;;;;5019205;28;45293;-95
2023/04/29 06:39:22;;;;;;;;;9.00;3.00;;;;;;;;5018792;28;45305;-93
2023/04/29 06:41:47;;;;;;;;;4.00;2.33;;;;;;;;5000954;28;47225;-92
2023/04/29 06:44:12;;;;;;;;;7.67;2.00;;;;;;;;5018163;28;45318;-92
2023/04/29 06:46:38;;;;;;;;;5.00;2.50;;;;;;;;5000892;28;45415;-92
2023/04/29 06:49:03;;;;;;;;;6.50;3.75;;;;;;;;5018249;28;45404;-93
2023/04/29 06:51:28;;;;;;;;;8.00;7.00;;;;;;;;5000407;28;47096;-93
2023/04/29 06:53:54;;;;;;;;;8.25;7.00;;;;;;;;5018347;28;45373;-93
2023/04/29 06:56:19;;;;;;;;;7.00;6.50;;;;;;;;5018420;28;45380;-93
2023/04/29 06:58:45;;;;;;;;;13.75;6.50;;;;;;;;5018283;28;45436;-93
2023/04/29 07:01:10;;;;;;;;;10.33;5.00;;;;;;;;5000623;28;46982;-93
2023/04/29 07:03:35;;;;;;;;;10.33;6.33;;;;;;;;5017583;28;45536;-94
2023/04/29 07:06:00;;;;;;;;;8.25;4.00;;;;;;;;5000630;28;45484;-93
2023/04/29 07:08:27;;;;;;;;;9.00;7.25;;;;;;;;5017890;28;45611;-93
2023/04/29 07:10:55;;;;;;;;;8.75;5.00;;;;;;;;5018036;28;45320;-93
2023/04/29 07:13:20;;;;;;;;;9.50;8.75;;;;;;;;5032914;28;45530;-93
2023/04/29 07:15:46;;;;;;;;;9.50;6.75;;;;;;;;5036925;28;45595;-92
2023/04/29 07:18:11;;;;;;;;;12.50;7.00;;;;;;;;5037463;28;45332;-94
2023/04/29 07:20:36;;;;;;;;;14.33;8.67;;;;;;;;5036695;28;48478;-93
2023/04/29 07:23:02;;;;;;;;;9.00;9.00;;;;;;;;5036547;28;45349;-94
2023/04/29 07:25:28;;;;;;;;;14.67;8.00;;;;;;;;5036822;28;45488;-93
2023/04/29 07:27:53;;;;;;;;;13.75;8.25;;;;;;;;5037756;28;45253;-93
2023/04/29 07:30:19;;;;;;;;;9.75;9.00;;;;;;;;5037405;28;45399;-93
2023/04/29 07:32:44;;;;;;;;;14.75;8.00;;;;;;;;5036087;28;45338;-93
2023/04/29 07:35:09;;;;;;;;;14.00;7.33;;;;;;;;5036902;28;45420;-93
2023/04/29 07:37:34;;;;;;;;;9.33;7.67;;;;;;;;5036892;28;45325;-94
2023/04/29 07:40:00;;;;;;;;;9.00;7.00;;;;;;;;5036668;28;48174;-93
2023/04/29 07:42:25;;;;;;;;;9.50;7.00;;;;;;;;5038287;28;45285;-94
2023/04/29 07:44:50;;;;;;;;;13.67;7.33;;;;;;;;5040092;28;45352;-94
2023/04/29 07:47:15;;;;;;;;;19.00;9.00;;;;;;;;5039425;28;45297;-93
2023/04/29 07:49:41;;;;;;;;;11.00;8.00;;;;;;;;5040302;28;46272;-94
2023/04/29 07:52:08;;;;;;;;;14.50;12.50;;;;;;;;5037133;28;45262;-93
2023/04/29 07:54:34;;;;;;;;;15.00;13.25;;;;;;;;5037344;28;45269;-94
2023/04/29 07:57:00;;;;;;;;;21.50;9.50;;;;;;;;5038113;28;45352;-96
2023/04/29 07:59:25;;;;;;;;;14.25;8.50;;;;;;;;5038017;28;45530;-92
2023/04/29 08:01:51;;;;;;;;;10.00;9.25;;;;;;;;5035994;28;45685;-93
2023/04/29 08:04:16;;;;;;;;;15.50;10.75;;;;;;;;5037667;28;45325;-93
2023/04/29 08:06:42;;;;;;;;;15.33;11.67;;;;;;;;5036554;28;45266;-93
2023/04/29 08:09:07;;;;;;;;;15.67;12.33;;;;;;;;5051189;28;46509;-93
2023/04/29 08:11:32;;;;;;;;;14.75;9.00;;;;;;;;5036328;28;45570;-93
2023/04/29 08:13:59;;;;;;;;;15.50;9.75;;;;;;;;5037340;28;45293;-93
2023/04/29 08:16:25;;;;;;;;;9.50;9.00;;;;;;;;5037239;28;45468;-92
2023/04/29 08:18:50;;;;;;;;;16.25;10.25;;;;;;;;5037529;28;45567;-92
2023/04/29 08:21:15;;;;;;;;;17.67;10.67;;;;;;;;5019724;28;45642;-92
2023/04/29 08:23:40;;;;;;;;;13.50;9.50;;;;;;;;5037112;28;45705;-93
2023/04/29 08:26:06;;;;;;;;;19.33;14.00;;;;;;;;5037413;28;45404;-93
2023/04/29 08:28:31;;;;;;;;;13.25;10.75;;;;;;;;5036931;28;45313;-93
2023/04/29 08:30:57;;;;;;;;;18.33;12.67;;;;;;;;5018993;28;45318;-93
2023/04/29 08:33:22;;;;;;;;;13.75;8.25;;;;;;;;5019514;28;45368;-93
2023/04/29 08:35:47;;;;;;;;;16.33;11.00;;;;;;;;5019374;28;45243;-93
2023/04/29 08:38:12;;;;;;;;;15.00;11.00;;;;;;;;5036467;28;45535;-93
2023/04/29 08:40:42;;;;;;;;;9.25;7.75;;;;;;;;5036636;28;45230;-92
2023/04/29 08:43:08;;;;;;;;;20.00;10.25;;;;;;;;5036917;28;45492;-91
2023/04/29 08:45:34;;;;;;;;;16.00;9.75;;;;;;;;5038700;28;45348;-92
2023/04/29 08:48:01;;;;;;;;;17.75;11.50;;;;;;;;5040461;28;46293;-93
2023/04/29 08:50:27;;;;;;;;;11.50;8.75;;;;;;;;5022482;28;46084;-92
2023/04/29 08:52:52;;;;;;;;;16.25;10.75;;;;;;;;5022308;28;45357;-92
2023/04/29 08:55:17;;;;;;;;;17.50;10.25;;;;;;;;5022446;28;45378;-92
2023/04/29 08:57:43;;;;;;;;;17.00;9.00;;;;;;;;5022063;28;47141;-92
2023/04/29 09:00:09;;;;;;;;;17.00;11.50;;;;;;;;5022237;28;45779;-93
2023/04/29 09:02:37;;;;;;;;;17.75;12.75;;;;;;;;5040454;28;45150;-92
2023/04/29 09:05:10;;;;;;;;;11.50;9.25;;;;;;;;5022599;28;45421;-92
2023/04/29 09:07:36;;;;;;;;;17.50;10.75;;;;;;;;5039698;28;45579;-93
2023/04/29 09:10:03;;;;;;;;;22.50;15.25;;;;;;;;5040834;28;45395;-93
2023/04/29 09:12:29;;;;;;;;;14.25;10.75;;;;;;;;5023586;28;45383;-95
2023/04/29 09:14:55;;;;;;;;;17.00;11.00;;;;;;;;5041428;28;45361;-94
2023/04/29 09:17:36;;;;;;;;;16.00;12.00;;;;;;;;5037323;28;48082;-92
2023/04/29 09:20:22;;;;;;;;;18.00;10.00;;;;;;;;5060548;28;45134;-93
2023/04/29 09:22:48;;;;;;;;;25.25;12.50;;;;;;;;5042275;28;45460;-91
2023/04/29 09:25:15;;;;;;;;;11.25;10.50;;;;;;;;5039706;28;45472;-91
2023/04/29 09:27:41;;;;;;;;;14.75;12.75;;;;;;;;5028619;28;48207;-92
2023/04/29 09:30:07;;;;;;;;;14.00;11.75;;;;;;;;5041961;28;45270;-93
2023/04/29 09:32:32;;;;;;;;;14.00;11.75;;;;;;;;5025325;28;45291;-91
2023/04/29 09:34:57;;;;;;;;;19.50;11.00;;;;;;;;5011831;28;45226;-92
2023/04/29 09:37:24;;;;;;;;;14.67;12.67;;;;;;;;5003352;28;48265;-92
2023/04/29 09:39:49;;;;;;;;;13.75;11.00;;;;;;;;5024989;28;45732;-92
2023/04/29 09:42:15;;;;;;;;;16.25;12.00;;;;;;;;5025557;28;45225;-92
2023/04/29 09:44:41;;;;;;;;;12.75;10.00;;;;;;;;5020236;28;45255;-92
2023/04/29 09:47:07;;;;;;;;;20.50;12.00;;;;;;;;5001994;28;47332;-92
2023/04/29 09:49:38;;;;;;;;;18.25;13.25;;;;;;;;5002168;28;46832;-92
2023/04/29 09:52:04;;;;;;;;;12.75;10.00;;;;;;;;5001978;28;45305;-92
2023/04/29 09:54:31;;;;;;;;;18.75;11.50;;;;;;;;5019119;28;45155;-92
2023/04/29 09:56:57;;;;;;;;;22.00;13.00;;;;;;;;5001103;28;46459;-92
2023/04/29 09:59:23;;;;;;;;;17.00;12.50;;;;;;;;5018890;28;45293;-92
2023/04/29 10:01:49;;;;;;;;;11.75;9.75;;;;;;;;5001346;28;45422;-93
2023/04/29 10:04:15;;;;;;;;;12.50;11.00;;;;;;;;5018980;28;45265;-93
2023/04/29 10:06:41;;;;;;;;;12.25;12.00;;;;;;;;5018835;28;46399;-92
2023/04/29 10:09:07;;;;;;;;;21.00;13.75;;;;;;;;5018706;28;45239;-93
2023/04/29 10:11:33;;;;;;;;;16.50;10.50;;;;;;;;5001574;28;45619;-93
2023/04/29 10:13:58;;;;;;;;;13.50;7.75;;;;;;;;5001445;28;45473;-93
2023/04/29 10:16:35;;;;;;;;;11.75;11.50;;;;;;;;5019329;28;46645;-92
2023/04/29 10:19:05;;;;;;;;;7.75;2.75;;;;;;;;5019450;28;45286;-93
2023/04/29 10:21:31;;;;;;;;;14.25;7.50;;;;;;;;5019490;28;45341;-93
2023/04/29 10:23:57;;;;;;;;;14.50;13.00;;;;;;;;5001455;28;45592;-94
2023/04/29 10:26:25;;;;;;;;;13.75;10.75;;;;;;;;5018581;28;45188;-93
2023/04/29 10:28:52;;;;;;;;;13.25;8.75;;;;;;;;5001383;28;45866;-92
2023/04/29 10:31:18;;;;;;;;;10.75;9.75;;;;;;;;5001720;28;45296;-93
2023/04/29 10:33:46;;;;;;;;;8.50;6.50;;;;;;;;5001614;28;45361;-93
2023/04/29 10:36:12;;;;;;;;;10.00;7.00;;;;;;;;5018674;28;46262;-93
2023/04/29 10:38:41;;;;;;;;;12.00;6.25;;;;;;;;5018949;28;45237;-92
2023/04/29 10:41:15;;;;;;;;;11.00;7.00;;;;;;;;5001969;28;45374;-94
2023/04/29 10:43:41;;;;;;;;;13.25;8.25;;;;;;;;5018260;28;45266;-93
2023/04/29 10:46:15;;;;;;;;;11.50;6.50;;;;;;;;5028264;28;46199;-91
2023/04/29 10:48:44;;;;;;;;;11.50;6.50;;;;;;;;5006363;28;45305;-90
2023/04/29 10:51:09;;;;;;;;;11.75;9.25;;;;;;;;5005671;28;45416;-91
2023/04/29 10:53:35;;;;;;;;;9.50;6.00;;;;;;;;5020571;28;45522;-90
2023/04/29 10:56:06;;;;;;;;;12.50;8.00;;;;;;;;5037593;28;45581;-92
2023/04/29 10:58:44;;;;;;;;;12.00;7.75;;;;;;;;5045928;28;45459;-90
2023/04/29 11:01:10;;;;;;;;;12.00;6.50;;;;;;;;5037888;28;45429;-90
2023/04/29 11:03:53;;;;;;;;;15.00;10.00;;;;;;;;5037990;28;45555;-89
2023/04/29 11:06:19;;;;;;;;;12.00;8.25;;;;;;;;5038025;28;45570;-90
2023/04/29 11:08:44;;;;;;;;;14.75;8.50;;;;;;;;5036325;28;45495;-89
2023/04/29 11:11:12;;;;;;;;;13.00;8.00;;;;;;;;5036984;28;45359;-88
2023/04/29 11:13:38;;;;;;;;;10.00;7.75;;;;;;;;5036673;28;45277;-86
2023/04/29 11:16:07;;;;;;;;;15.75;7.50;;;;;;;;5036358;28;45545;-86
2023/04/29 11:18:33;;;;;;;;;12.25;8.00;;;;;;;;5036189;28;45418;-86
2023/04/29 11:21:19;;;;;;;;;10.75;6.75;;;;;;;;5036399;28;45333;-86
2023/04/29 11:23:46;;;;;;;;;8.25;7.50;;;;;;;;5033606;28;45492;-85
2023/04/29 11:26:11;;;;;;;;;12.75;8.75;;;;;;;;5033950;28;47289;-85
2023/04/29 11:28:37;;;;;;;;;11.00;8.33;;;;;;;;5017662;28;45493;-86
2023/04/29 11:31:05;;;;;;;;;7.25;6.00;;;;;;;;5018653;28;45247;-86
2023/04/29 11:33:31;;;;;;;;;8.00;7.50;;;;;;;;5018134;28;45604;-86
2023/04/29 11:35:57;;;;;;;;;8.25;5.75;;;;;;;;5036294;28;45391;-86
2023/04/29 11:38:25;;;;;;;;;15.25;7.75;;;;;;;;5018094;28;45525;-87
2023/04/29 11:40:51;;;;;;;;;9.75;6.00;;;;;;;;5018192;28;45357;-88
2023/04/29 11:43:17;;;;;;;;;7.00;7.00;;;;;;;;5036565;28;45438;-86
2023/04/29 11:45:43;;;;;;;;;8.00;6.50;;;;;;;;5036425;28;46342;-87
2023/04/29 11:48:16;;;;;;;;;11.50;6.00;;;;;;;;5018522;28;45802;-88
2023/04/29 11:50:41;;;;;;;;;8.75;7.50;;;;;;;;5018934;28;45351;-88
2023/04/29 11:53:06;;;;;;;;;7.00;5.00;;;;;;;;5017837;28;45255;-86
2023/04/29 11:55:32;;;;;;;;;9.75;6.00;;;;;;;;5035760;28;45326;-87
2023/04/29 11:57:57;;;;;;;;;8.50;5.50;;;;;;;;5020491;28;45271;-86
2023/04/29 12:00:23;;;;;;;;;10.00;8.00;;;;;;;;5008636;28;45452;-85
2023/04/29 12:02:48;;;;;;;;;9.50;9.00;;;;;;;;5015416;28;45263;-85
2023/04/29 12:05:15;;;;;;;;;9.25;7.25;;;;;;;;5015687;28;46296;-87
2023/04/29 12:07:40;;;;;;;;;9.75;8.00;;;;;;;;5015330;28;45524;-86
2023/04/29 12:10:12;;;;;;;;;9.75;6.50;;;;;;;;4997997;28;45451;-86
2023/04/29 12:12:39;;;;;;;;;7.75;3.00;;;;;;;;5027430;28;45471;-86
2023/04/29 12:15:05;;;;;;;;;10.75;6.75;;;;;;;;5035261;28;46255;-85
2023/04/29 12:17:31;;;;;;;;;9.00;8.00;;;;;;;;5035590;28;45777;-85
2023/04/29 12:19:56;;;;;;;;;8.75;6.75;;;;;;;;5036519;28;45832;-85
2023/04/29 12:22:21;;;;;;;;;11.50;8.00;;;;;;;;5020905;28;45540;-86
2023/04/29 12:24:47;;;;;;;;;11.33;7.00;;;;;;;;5038963;28;47136;-85
2023/04/29 12:27:12;;;;;;;;;8.50;6.00;;;;;;;;5038993;28;45497;-86
2023/04/29 12:29:39;;;;;;;;;8.25;6.25;;;;;;;;5039017;28;45348;-85
2023/04/29 12:32:04;;;;;;;;;10.00;6.25;;;;;;;;5039488;28;45456;-86
2023/04/29 12:34:30;;;;;;;;;5.33;5.00;;;;;;;;5039170;28;46545;-86
2023/04/29 12:36:57;;;;;;;;;9.25;7.25;;;;;;;;5038517;28;45717;-85
2023/04/29 12:39:22;;;;;;;;;8.75;7.25;;;;;;;;5038983;28;45291;-85
2023/04/29 12:41:48;;;;;;;;;13.75;9.00;;;;;;;;5020761;28;45600;-85
2023/04/29 12:44:14;;;;;;;;;10.00;7.00;;;;;;;;5038736;28;46346;-86
2023/04/29 12:46:40;;;;;;;;;10.25;7.50;;;;;;;;5038442;28;45342;-85
2023/04/29 12:49:06;;;;;;;;;6.75;6.75;;;;;;;;5038723;28;45378;-86
2023/04/29 12:51:32;;;;;;;;;8.50;7.00;;;;;;;;5038184;28;45857;-85
2023/04/29 12:54:02;;;;;;;;;11.50;7.00;;;;;;;;5038640;28;45552;-85
2023/04/29 12:56:28;;;;;;;;;13.25;7.75;;;;;;;;5038798;28;45791;-85
2023/04/29 12:58:53;;;;;;;;;12.00;9.00;;;;;;;;5038527;28;45485;-85
2023/04/29 13:01:18;;;;;;;;;9.00;6.00;;;;;;;;5038553;28;45343;-85
2023/04/29 13:03:44;;;;;;;;;8.00;7.00;;;;;;;;5038328;28;46072;-85
2023/04/29 13:06:09;;;;;;;;;8.00;5.75;;;;;;;;5037795;28;45333;-85
2023/04/29 13:08:36;;;;;;;;;9.00;6.67;;;;;;;;5038592;28;45374;-86
2023/04/29 13:11:02;;;;;;;;;12.50;7.25;;;;;;;;5020501;28;45507;-85
2023/04/29 13:13:27;;;;;;;;;10.33;7.00;;;;;;;;5038123;28;45336;-85
2023/04/29 13:15:53;;;;;;;;;10.25;7.75;;;;;;;;5038238;28;45379;-86
2023/04/29 13:18:18;;;;;;;;;8.25;7.00;;;;;;;;5038327;28;45351;-86
2023/04/29 13:20:43;;;;;;;;;11.33;9.00;;;;;;;;5036802;28;45375;-86
2023/04/29 13:23:09;;;;;;;;;7.33;6.00;;;;;;;;5038174;28;47040;-85
2023/04/29 13:25:34;;;;;;;;;12.50;9.50;;;;;;;;5038158;28;45309;-85
2023/04/29 13:27:59;;;;;;;;;7.33;5.33;;;;;;;;5038572;28;45249;-86
2023/04/29 13:30:24;;;;;;;;;9.00;9.00;;;;;;;;5037405;28;45325;-86
2023/04/29 13:32:50;;;;;;;;;6.00;6.00;;;;;;;;5038261;28;45599;-86
2023/04/29 13:35:15;;;;;;;;;13.00;7.00;;;;;;;;5037764;28;45360;-87
2023/04/29 13:37:40;;;;;;;;;10.75;7.00;;;;;;;;5038068;28;45382;-85
2023/04/29 13:40:06;;;;;;;;;7.75;5.00;;;;;;;;5036783;28;45463;-86
2023/04/29 13:42:31;;;;;;;;;9.00;5.00;;;;;;;;5037796;28;46748;-85
2023/04/29 13:44:57;;;;;;;;;12.33;6.00;;;;;;;;5038030;28;45275;-86
2023/04/29 13:47:22;;;;;;;;;7.25;4.50;;;;;;;;5037999;28;45222;-85
2023/04/29 13:49:47;;;;;;;;;7.00;5.75;;;;;;;;5037386;28;45182;-85
2023/04/29 13:52:13;;;;;;;;;10.25;6.25;;;;;;;;5037818;28;45360;-86
2023/04/29 13:54:38;;;;;;;;;6.67;5.33;;;;;;;;5037703;28;45340;-85
2023/04/29 13:57:03;;;;;;;;;11.00;4.67;;;;;;;;5037704;28;45229;-86
2023/04/29 13:59:30;;;;;;;;;6.50;5.00;;;;;;;;5037532;28;45353;-86
2023/04/29 14:01:55;;;;;;;;;5.75;5.75;;;;;;;;5037283;28;47106;-85
2023/04/29 14:04:22;;;;;;;;;10.75;5.50;;;;;;;;5036902;28;45208;-86
2023/04/29 14:06:48;;;;;;;;;8.00;6.00;;;;;;;;5037572;28;45387;-85
2023/04/29 14:09:13;;;;;;;;;4.33;4.00;;;;;;;;5052928;28;45353;-85
2023/04/29 14:11:38;;;;;;;;;7.67;4.00;;;;;;;;5053656;28;47081;-86
2023/04/29 14:14:03;;;;;;;;;5.33;4.33;;;;;;;;5037628;28;45356;-87
2023/04/29 14:16:29;;;;;;;;;8.33;8.00;;;;;;;;5037311;28;45337;-86
2023/04/29 14:18:54;;;;;;;;;10.00;7.00;;;;;;;;5018756;28;45329;-86
2023/04/29 14:21:21;;;;;;;;;7.67;5.00;;;;;;;;5019297;28;48286;-86
2023/04/29 14:23:46;;;;;;;;;9.00;7.25;;;;;;;;5037238;28;45243;-87
2023/04/29 14:26:11;;;;;;;;;6.33;6.00;;;;;;;;5019180;28;45385;-86
2023/04/29 14:28:37;;;;;;;;;7.00;4.67;;;;;;;;5036878;28;45195;-86
2023/04/29 14:31:02;;;;;;;;;7.00;4.33;;;;;;;;5036748;28;46604;-86
2023/04/29 14:33:27;;;;;;;;;8.00;6.67;;;;;;;;5036821;28;45219;-86